Time;durP1;ratioP1;P1;durP2;ratioP2;P2;SDS_P1;SDS_P2;PMS_P1;PMS_P2;Temp;Humidity;BMP_temperature;BMP_pressure;BME280_temperature;BME280_humidity;BME280_pressure;Samples;Min_cycle;Max_cycle;Signal;HPM_P1;HPM_P2
2021/04/18 00:00:16;;;;;;;1.20;1.00;;;5.40;98.00;;;;;;5068668;28;20496;-72
2021/04/18 00:02:43;;;;;;;1.20;1.13;;;5.40;98.00;;;;;;5070900;28;20457;-72
2021/04/18 00:05:11;;;;;;;1.40;1.27;;;5.30;98.00;;;;;;5068932;28;20461;-72
2021/04/18 00:07:37;;;;;;;1.20;0.90;;;5.30;98.00;;;;;;5071550;28;20456;-72
2021/04/18 00:10:08;;;;;;;1.43;1.37;;;5.30;98.00;;;;;;5069132;28;20500;-72
2021/04/18 00:12:35;;;;;;;1.20;1.10;;;5.30;98.00;;;;;;5069784;28;20977;-72
2021/04/18 00:15:04;;;;;;;1.20;1.10;;;5.30;98.00;;;;;;5067402;28;20513;-72
2021/04/18 00:17:31;;;;;;;1.43;1.37;;;5.30;98.00;;;;;;5071230;28;20554;-72
2021/04/18 00:19:58;;;;;;;2.60;1.27;;;5.30;98.00;;;;;;5068559;28;20504;-72
2021/04/18 00:22:25;;;;;;;1.20;1.20;;;5.30;98.00;;;;;;5071209;28;20449;-72
2021/04/18 00:24:53;;;;;;;1.20;1.00;;;5.50;98.00;;;;;;5068380;28;20951;-72
2021/04/18 00:27:20;;;;;;;1.20;0.97;;;5.50;98.00;;;;;;5071059;28;20468;-72
2021/04/18 00:29:58;;;;;;;1.20;1.00;;;5.50;98.00;;;;;;5066935;28;20511;-72
2021/04/18 00:32:25;;;;;;;1.20;1.00;;;5.40;98.00;;;;;;5070976;28;20494;-72
2021/04/18 00:34:53;;;;;;;1.20;0.97;;;5.30;98.00;;;;;;5068433;28;20459;-72
2021/04/18 00:37:19;;;;;;;1.43;1.07;;;5.20;98.00;;;;;;5070925;28;20484;-71
2021/04/18 00:39:46;;;;;;;1.20;1.00;;;5.20;98.00;;;;;;5067058;28;20825;-72
2021/04/18 00:42:12;;;;;;;1.20;1.07;;;5.30;98.00;;;;;;5070978;28;20463;-72
2021/04/18 00:44:39;;;;;;;4.47;1.50;;;5.20;98.00;;;;;;5070424;28;20451;-72
2021/04/18 00:47:05;;;;;;;1.23;1.10;;;5.20;98.00;;;;;;5069656;28;20461;-72
2021/04/18 00:49:33;;;;;;;1.40;1.10;;;5.10;98.00;;;;;;5071042;28;20466;-71
2021/04/18 00:52:00;;;;;;;1.40;1.20;;;5.20;98.00;;;;;;5066833;28;20470;-72
2021/04/18 00:54:28;;;;;;;1.20;1.10;;;5.30;98.00;;;;;;5070968;28;20805;-72
2021/04/18 00:56:54;;;;;;;2.13;1.33;;;5.30;98.00;;;;;;5068335;28;20482;-72
2021/04/18 00:59:28;;;;;;;1.63;1.20;;;5.30;98.00;;;;;;5071232;28;20460;-72
2021/04/18 01:01:57;;;;;;;1.20;0.90;;;5.30;98.00;;;;;;5067182;28;20456;-72
2021/04/18 01:04:26;;;;;;;1.20;1.00;;;5.30;98.00;;;;;;5071145;28;20463;-72
2021/04/18 01:06:53;;;;;;;1.20;1.00;;;5.30;98.00;;;;;;5068471;28;20459;-72
2021/04/18 01:09:21;;;;;;;1.20;0.90;;;5.30;98.00;;;;;;5070938;28;20499;-72
2021/04/18 01:11:47;;;;;;;1.30;1.23;;;5.20;98.00;;;;;;5068137;28;21020;-72
2021/04/18 01:14:14;;;;;;;1.43;1.00;;;5.30;98.00;;;;;;5072260;28;20963;-72
2021/04/18 01:16:44;;;;;;;1.30;1.10;;;5.20;98.00;;;;;;5072013;28;20518;-71
2021/04/18 01:19:10;;;;;;;1.20;1.00;;;5.20;98.00;;;;;;5073283;28;20449;-72
2021/04/18 01:21:38;;;;;;;1.63;1.63;;;5.30;98.00;;;;;;5071806;28;20472;-72
2021/04/18 01:24:06;;;;;;;1.20;1.10;;;5.30;98.00;;;;;;5074358;28;20843;-72
2021/04/18 01:26:34;;;;;;;1.20;1.00;;;5.20;98.00;;;;;;5071702;28;20510;-72
2021/04/18 01:29:01;;;;;;;1.20;0.90;;;5.20;98.00;;;;;;5074369;28;20458;-72
2021/04/18 01:31:28;;;;;;;1.60;1.20;;;5.00;98.00;;;;;;5071712;28;20455;-72
2021/04/18 01:33:55;;;;;;;1.90;1.83;;;4.90;98.00;;;;;;5074149;28;20481;-72
2021/04/18 01:36:22;;;;;;;1.47;1.00;;;4.80;98.00;;;;;;5070153;28;20982;-71
2021/04/18 01:38:50;;;;;;;1.20;0.90;;;4.80;98.00;;;;;;5073893;28;20480;-72
2021/04/18 01:41:16;;;;;;;1.60;1.10;;;4.70;98.00;;;;;;5071173;28;20950;-72
2021/04/18 01:43:43;;;;;;;1.20;0.97;;;4.70;98.00;;;;;;5074091;28;20506;-72
2021/04/18 01:46:10;;;;;;;1.50;1.20;;;4.60;98.00;;;;;;5071308;28;20465;-72
2021/04/18 01:48:37;;;;;;;1.20;1.07;;;4.60;98.00;;;;;;5074128;28;20466;-72
2021/04/18 01:51:05;;;;;;;1.20;1.00;;;4.50;98.00;;;;;;5071277;28;20924;-72
2021/04/18 01:53:32;;;;;;;1.63;1.30;;;4.50;98.00;;;;;;5073861;28;20600;-72
2021/04/18 01:55:59;;;;;;;1.20;1.03;;;4.60;98.00;;;;;;5071227;28;20581;-72
2021/04/18 01:58:26;;;;;;;1.20;1.00;;;4.60;98.00;;;;;;5074033;28;20881;-72
2021/04/18 02:00:53;;;;;;;1.20;1.00;;;4.80;98.00;;;;;;5071093;28;20520;-72
2021/04/18 02:03:19;;;;;;;1.37;1.30;;;4.80;98.00;;;;;;5073982;28;20451;-72
2021/04/18 02:05:46;;;;;;;2.70;1.00;;;4.70;98.00;;;;;;5071043;28;20977;-72
2021/04/18 02:08:13;;;;;;;1.20;1.00;;;4.70;98.00;;;;;;5073770;28;20443;-71
2021/04/18 02:10:39;;;;;;;1.50;1.27;;;4.80;98.00;;;;;;5071251;28;20459;-72
2021/04/18 02:13:07;;;;;;;1.30;1.17;;;5.00;98.00;;;;;;5073627;28;20462;-71
2021/04/18 02:15:33;;;;;;;1.30;1.13;;;5.10;98.00;;;;;;5070734;28;20945;-71
2021/04/18 02:18:00;;;;;;;1.20;0.97;;;5.10;98.00;;;;;;5073505;28;20457;-72
2021/04/18 02:20:26;;;;;;;1.20;1.00;;;5.10;98.00;;;;;;5070610;28;20463;-72
2021/04/18 02:22:53;;;;;;;1.20;1.10;;;5.20;98.00;;;;;;5073297;28;20529;-71
2021/04/18 02:25:19;;;;;;;1.40;1.10;;;5.20;98.00;;;;;;5069468;28;20465;-72
2021/04/18 02:27:46;;;;;;;1.20;1.00;;;5.20;98.00;;;;;;5073162;28;20909;-72
2021/04/18 02:30:15;;;;;;;1.20;1.00;;;5.20;98.00;;;;;;5070673;28;20955;-72
2021/04/18 02:32:43;;;;;;;1.20;1.00;;;5.10;98.00;;;;;;5073013;28;20502;-72
2021/04/18 02:35:12;;;;;;;1.20;1.00;;;5.20;98.00;;;;;;5070171;28;20515;-72
2021/04/18 02:37:39;;;;;;;1.20;1.00;;;5.20;98.00;;;;;;5072947;28;20576;-72
2021/04/18 02:40:06;;;;;;;1.30;1.23;;;5.30;98.00;;;;;;5069918;28;20457;-72
2021/04/18 02:42:33;;;;;;;1.20;1.07;;;5.30;98.00;;;;;;5072891;28;20943;-71
2021/04/18 02:44:59;;;;;;;1.30;1.10;;;5.20;98.00;;;;;;5069914;28;20459;-72
2021/04/18 02:47:27;;;;;;;1.33;1.07;;;5.10;98.00;;;;;;5073152;28;20464;-72
2021/04/18 02:49:53;;;;;;;1.20;1.00;;;5.20;98.00;;;;;;5071396;28;20464;-71
2021/04/18 02:52:20;;;;;;;1.40;1.10;;;5.20;98.00;;;;;;5072648;28;20468;-71
2021/04/18 02:54:47;;;;;;;2.17;1.27;;;5.10;98.00;;;;;;5072855;28;20547;-72
2021/04/18 02:57:13;;;;;;;1.50;1.37;;;5.10;98.00;;;;;;5069391;28;20563;-72
2021/04/18 02:59:39;;;;;;;2.23;1.10;;;5.00;98.00;;;;;;5071774;28;20466;-72
2021/04/18 03:02:06;;;;;;;1.20;1.00;;;5.00;98.00;;;;;;5068805;28;21054;-72
2021/04/18 03:04:33;;;;;;;1.63;1.10;;;4.90;98.00;;;;;;5072034;28;20928;-72
2021/04/18 03:07:00;;;;;;;1.20;1.00;;;4.80;98.00;;;;;;5069509;28;20455;-72
2021/04/18 03:09:26;;;;;;;1.20;1.00;;;4.80;98.00;;;;;;5072556;28;20461;-72
2021/04/18 03:11:53;;;;;;;1.50;1.33;;;4.70;98.00;;;;;;5069413;28;20463;-72
2021/04/18 03:14:19;;;;;;;1.20;0.90;;;4.80;98.00;;;;;;5072180;28;20967;-72
2021/04/18 03:16:46;;;;;;;1.20;0.97;;;4.90;98.00;;;;;;5069381;28;20542;-72
2021/04/18 03:19:13;;;;;;;1.30;1.20;;;5.00;98.00;;;;;;5072098;28;20568;-72
2021/04/18 03:21:41;;;;;;;1.20;1.00;;;5.00;98.00;;;;;;5069611;28;20919;-72
2021/04/18 03:24:08;;;;;;;1.20;1.07;;;5.00;98.00;;;;;;5072118;28;20813;-72
2021/04/18 03:26:35;;;;;;;2.90;1.83;;;4.90;98.00;;;;;;5069572;28;20577;-72
2021/04/18 03:29:01;;;;;;;1.60;1.30;;;4.70;98.00;;;;;;5071718;28;20461;-72
2021/04/18 03:31:28;;;;;;;1.20;1.00;;;4.60;98.00;;;;;;5068526;28;20514;-72
2021/04/18 03:33:54;;;;;;;1.20;1.00;;;4.60;98.00;;;;;;5072149;28;20458;-72
2021/04/18 03:36:21;;;;;;;1.20;1.00;;;4.60;98.00;;;;;;5068074;28;20833;-71
2021/04/18 03:38:48;;;;;;;1.20;1.00;;;4.70;98.00;;;;;;5071930;28;20499;-71
2021/04/18 03:41:15;;;;;;;3.37;1.20;;;4.70;98.00;;;;;;5068603;28;20483;-72
2021/04/18 03:43:41;;;;;;;1.70;1.47;;;4.90;98.00;;;;;;5071624;28;20458;-72
2021/04/18 03:46:08;;;;;;;1.20;1.03;;;4.90;98.00;;;;;;5067596;28;20498;-72
2021/04/18 03:48:34;;;;;;;1.20;1.00;;;4.90;98.00;;;;;;5071787;28;21015;-71
2021/04/18 03:51:01;;;;;;;1.20;1.00;;;5.00;98.00;;;;;;5068292;28;20991;-72
2021/04/18 03:53:27;;;;;;;1.20;1.00;;;5.00;98.00;;;;;;5071622;28;20853;-72
2021/04/18 03:55:55;;;;;;;1.73;1.40;;;5.00;98.00;;;;;;5068758;28;20476;-72
2021/04/18 03:58:21;;;;;;;1.20;1.00;;;4.90;98.00;;;;;;5071316;28;20462;-72
2021/04/18 04:00:47;;;;;;;1.20;0.90;;;5.10;98.00;;;;;;5068514;28;20455;-72
2021/04/18 04:03:15;;;;;;;1.47;1.43;;;5.10;98.00;;;;;;5071398;28;20495;-72
2021/04/18 04:05:41;;;;;;;1.30;1.30;;;5.10;98.00;;;;;;5068396;28;20474;-72
2021/04/18 04:08:08;;;;;;;2.77;1.60;;;5.20;98.00;;;;;;5071342;28;20453;-72
2021/04/18 04:10:34;;;;;;;1.60;1.20;;;5.20;98.00;;;;;;5068463;28;20447;-72
2021/04/18 04:13:02;;;;;;;1.20;1.00;;;5.30;98.00;;;;;;5071718;28;20459;-72
2021/04/18 04:15:28;;;;;;;1.20;1.00;;;5.30;98.00;;;;;;5068940;28;20872;-72
2021/04/18 04:17:55;;;;;;;1.53;1.27;;;5.20;98.00;;;;;;5071501;28;20543;-72
2021/04/18 04:20:21;;;;;;;1.50;1.13;;;5.30;98.00;;;;;;5068649;28;21048;-72
2021/04/18 04:22:48;;;;;;;1.57;1.37;;;5.20;98.00;;;;;;5071305;28;20486;-72
2021/04/18 04:25:15;;;;;;;1.80;1.10;;;5.20;98.00;;;;;;5068423;28;20457;-72
2021/04/18 04:27:41;;;;;;;1.30;1.10;;;5.30;98.00;;;;;;5071318;28;20451;-72
2021/04/18 04:30:11;;;;;;;1.60;1.30;;;5.30;98.00;;;;;;5068504;28;21083;-72
2021/04/18 04:32:38;;;;;;;1.87;1.20;;;5.30;98.00;;;;;;5071165;28;20464;-72
2021/04/18 04:35:05;;;;;;;1.97;1.50;;;5.30;98.00;;;;;;5069468;28;20462;-72
2021/04/18 04:37:32;;;;;;;1.40;1.30;;;5.30;98.00;;;;;;5070650;28;20489;-71
2021/04/18 04:39:58;;;;;;;1.20;1.00;;;5.30;98.00;;;;;;5071238;28;20458;-72
2021/04/18 04:42:25;;;;;;;1.30;1.10;;;5.30;98.00;;;;;;5069128;28;20490;-72
2021/04/18 04:44:51;;;;;;;1.47;1.20;;;5.40;98.00;;;;;;5071140;28;20953;-72
2021/04/18 04:47:19;;;;;;;1.93;1.30;;;5.40;98.00;;;;;;5068248;28;20457;-72
2021/04/18 04:49:45;;;;;;;1.80;1.40;;;5.30;98.00;;;;;;5073455;28;20508;-71
2021/04/18 04:52:12;;;;;;;1.20;1.10;;;5.30;98.00;;;;;;5072353;28;20458;-72
2021/04/18 04:54:38;;;;;;;1.20;1.00;;;5.40;98.00;;;;;;5075005;28;20447;-71
2021/04/18 04:57:06;;;;;;;1.73;1.40;;;5.50;98.00;;;;;;5072256;28;20477;-72
2021/04/18 04:59:32;;;;;;;1.30;1.00;;;5.50;98.00;;;;;;5074610;28;20472;-72
2021/04/18 05:01:59;;;;;;;1.30;1.10;;;5.60;98.00;;;;;;5072227;28;20451;-72
2021/04/18 05:04:28;;;;;;;1.20;1.13;;;5.50;98.00;;;;;;5073467;28;20776;-72
2021/04/18 05:06:54;;;;;;;1.20;1.10;;;5.60;98.00;;;;;;5072045;28;20516;-72
2021/04/18 05:09:21;;;;;;;1.40;1.00;;;5.60;98.00;;;;;;5075116;28;20482;-71
2021/04/18 05:11:47;;;;;;;1.27;1.10;;;5.60;98.00;;;;;;5072137;28;20468;-72
2021/04/18 05:14:14;;;;;;;1.30;1.07;;;5.50;98.00;;;;;;5074846;28;20984;-72
2021/04/18 05:16:40;;;;;;;1.33;1.17;;;5.50;98.00;;;;;;5071801;28;20491;-72
2021/04/18 05:19:06;;;;;;;1.60;1.20;;;5.50;98.00;;;;;;5074367;28;20506;-72
2021/04/18 05:21:34;;;;;;;1.20;1.10;;;5.50;98.00;;;;;;5071724;28;20893;-72
2021/04/18 05:24:00;;;;;;;1.20;1.00;;;5.60;98.00;;;;;;5074518;28;20473;-72
2021/04/18 05:26:27;;;;;;;1.20;1.10;;;5.70;98.00;;;;;;5071545;28;20462;-72
2021/04/18 05:28:54;;;;;;;1.57;1.50;;;5.80;98.00;;;;;;5074290;28;20459;-72
2021/04/18 05:31:21;;;;;;;1.70;1.33;;;5.80;98.00;;;;;;5071513;28;20455;-72
2021/04/18 05:33:47;;;;;;;1.20;0.90;;;5.70;98.00;;;;;;5074081;28;20457;-72
2021/04/18 05:36:14;;;;;;;1.50;1.50;;;5.70;98.00;;;;;;5070043;28;20504;-72
2021/04/18 05:38:41;;;;;;;1.20;1.00;;;5.70;98.00;;;;;;5074123;28;20485;-72
2021/04/18 05:41:08;;;;;;;1.30;1.20;;;5.70;98.00;;;;;;5071022;28;20500;-72
2021/04/18 05:43:34;;;;;;;1.27;1.13;;;5.70;98.00;;;;;;5074005;28;20457;-72
2021/04/18 05:46:01;;;;;;;1.50;1.40;;;5.60;98.00;;;;;;5071058;28;20462;-71
2021/04/18 05:48:28;;;;;;;1.20;0.90;;;5.60;98.00;;;;;;5073969;28;20515;-72
2021/04/18 05:50:57;;;;;;;1.40;1.27;;;5.70;98.00;;;;;;5071301;28;20923;-72
2021/04/18 05:53:23;;;;;;;1.53;1.50;;;5.60;98.00;;;;;;5073996;28;20449;-71
2021/04/18 05:55:53;;;;;;;1.27;1.17;;;5.80;98.00;;;;;;5071445;28;20449;-72
2021/04/18 05:58:20;;;;;;;2.13;1.30;;;5.80;98.00;;;;;;5072586;28;20974;-71
2021/04/18 06:00:48;;;;;;;1.20;0.90;;;5.90;98.00;;;;;;5071400;28;20464;-71
2021/04/18 06:03:15;;;;;;;1.50;1.00;;;5.80;98.00;;;;;;5073750;28;20451;-71
2021/04/18 06:05:43;;;;;;;1.20;1.10;;;5.70;98.00;;;;;;5071047;28;20448;-71
2021/04/18 06:08:10;;;;;;;1.33;1.00;;;5.70;98.00;;;;;;5072359;28;20464;-71
2021/04/18 06:10:36;;;;;;;1.53;1.53;;;5.80;98.00;;;;;;5070970;28;20543;-72
2021/04/18 06:13:04;;;;;;;1.50;1.47;;;6.00;98.00;;;;;;5072064;28;20866;-71
2021/04/18 06:15:42;;;;;;;1.47;1.30;;;6.10;98.00;;;;;;5070842;28;20936;-72
2021/04/18 06:18:09;;;;;;;2.90;1.73;;;6.20;98.00;;;;;;5073066;28;20542;-72
2021/04/18 06:20:35;;;;;;;1.77;1.63;;;6.30;98.00;;;;;;5070723;28;20510;-72
2021/04/18 06:23:02;;;;;;;1.20;1.07;;;6.30;98.00;;;;;;5073305;28;20941;-71
2021/04/18 06:25:28;;;;;;;1.57;1.40;;;6.20;98.00;;;;;;5070755;28;20454;-71
2021/04/18 06:27:55;;;;;;;2.80;1.40;;;6.20;98.00;;;;;;5073112;28;20463;-71
2021/04/18 06:30:23;;;;;;;1.37;1.30;;;6.20;98.00;;;;;;5070651;28;20510;-71
2021/04/18 06:32:49;;;;;;;1.50;1.33;;;6.10;98.00;;;;;;5073094;28;20464;-71
2021/04/18 06:35:16;;;;;;;1.20;1.00;;;6.00;98.00;;;;;;5071873;28;20463;-72
2021/04/18 06:37:42;;;;;;;1.87;1.67;;;6.10;98.00;;;;;;5072791;28;21163;-71
2021/04/18 06:40:10;;;;;;;1.20;1.00;;;6.00;98.00;;;;;;5072927;28;20475;-72
2021/04/18 06:42:38;;;;;;;2.23;1.60;;;6.00;98.00;;;;;;5068403;28;21290;-72
2021/04/18 06:45:07;;;;;;;1.20;1.00;;;6.20;98.00;;;;;;5072675;28;20518;-72
2021/04/18 06:47:37;;;;;;;1.33;1.10;;;6.30;98.00;;;;;;5070167;28;20949;-72
2021/04/18 06:50:09;;;;;;;1.63;1.27;;;6.40;98.00;;;;;;5072838;28;20522;-72
2021/04/18 06:52:36;;;;;;;1.67;1.30;;;6.50;98.00;;;;;;5070351;28;20463;-72
2021/04/18 06:55:04;;;;;;;2.90;2.00;;;6.50;98.00;;;;;;5073054;28;20482;-72
2021/04/18 06:57:30;;;;;;;1.20;1.10;;;6.70;98.00;;;;;;5069031;28;20521;-71
2021/04/18 06:59:58;;;;;;;1.20;1.00;;;6.60;98.00;;;;;;5072914;28;20509;-71
2021/04/18 07:02:29;;;;;;;1.30;1.23;;;6.70;98.00;;;;;;5068658;28;20548;-71
2021/04/18 07:05:00;;;;;;;1.20;1.13;;;6.80;98.00;;;;;;5071434;28;20461;-72
2021/04/18 07:07:28;;;;;;;1.30;1.30;;;6.80;98.00;;;;;;5069831;28;20449;-72
2021/04/18 07:09:55;;;;;;;1.20;1.10;;;6.90;98.00;;;;;;5072617;28;20463;-71
2021/04/18 07:12:27;;;;;;;1.93;1.50;;;6.90;98.00;;;;;;5068047;28;20449;-72
2021/04/18 07:14:53;;;;;;;1.20;1.10;;;7.00;98.00;;;;;;5072494;28;20453;-72
2021/04/18 07:17:20;;;;;;;2.90;1.53;;;7.10;98.00;;;;;;5069711;28;20477;-72
2021/04/18 07:19:50;;;;;;;1.20;0.90;;;7.00;98.00;;;;;;5071125;28;20461;-73
2021/04/18 07:22:19;;;;;;;4.17;2.60;;;7.10;98.00;;;;;;5069632;28;20460;-71
2021/04/18 07:24:50;;;;;;;1.80;1.50;;;7.10;98.00;;;;;;5072132;28;20460;-71
2021/04/18 07:27:17;;;;;;;1.20;1.00;;;7.10;98.00;;;;;;5069389;28;20449;-72
2021/04/18 07:29:53;;;;;;;1.20;1.10;;;7.30;98.00;;;;;;5071958;28;21033;-72
2021/04/18 07:32:22;;;;;;;2.00;1.53;;;7.30;98.00;;;;;;5069170;28;21004;-71
2021/04/18 07:34:49;;;;;;;1.20;1.00;;;7.50;98.00;;;;;;5071626;28;20818;-70
2021/04/18 07:37:18;;;;;;;2.30;1.67;;;7.60;98.00;;;;;;5068769;28;20988;-71
2021/04/18 07:39:47;;;;;;;1.30;1.17;;;7.60;98.00;;;;;;5071975;28;20490;-71
2021/04/18 07:42:28;;;;;;;1.93;1.27;;;7.60;98.00;;;;;;5069124;28;20606;-72
2021/04/18 07:44:55;;;;;;;1.30;1.10;;;7.60;98.00;;;;;;5071747;28;20453;-72
2021/04/18 07:47:22;;;;;;;1.93;1.57;;;7.70;98.00;;;;;;5068857;28;20466;-72
2021/04/18 07:49:49;;;;;;;2.33;1.90;;;7.60;98.00;;;;;;5071623;28;20460;-71
2021/04/18 07:52:18;;;;;;;1.20;1.00;;;7.70;98.00;;;;;;5069295;28;20947;-72
2021/04/18 07:54:45;;;;;;;1.60;1.37;;;7.80;98.00;;;;;;5071749;28;20493;-73
2021/04/18 07:57:12;;;;;;;2.00;1.60;;;7.90;98.00;;;;;;5068819;28;20486;-72
2021/04/18 07:59:39;;;;;;;1.40;1.10;;;8.00;98.00;;;;;;5071331;28;20469;-70
2021/04/18 08:02:06;;;;;;;1.80;1.50;;;8.10;98.00;;;;;;5067267;28;20460;-71
2021/04/18 08:04:33;;;;;;;4.10;1.93;;;8.20;98.00;;;;;;5071432;28;20927;-71
2021/04/18 08:07:02;;;;;;;1.67;1.27;;;8.20;98.00;;;;;;5068588;28;20462;-71
2021/04/18 08:09:30;;;;;;;1.40;1.20;;;8.10;98.00;;;;;;5071333;28;20458;-72
2021/04/18 08:12:11;;;;;;;1.20;1.20;;;8.00;98.00;;;;;;5068630;28;20849;-71
2021/04/18 08:14:39;;;;;;;2.40;1.60;;;8.10;98.00;;;;;;5071178;28;20453;-72
2021/04/18 08:17:07;;;;;;;1.60;1.50;;;8.30;98.00;;;;;;5068188;28;20482;-71
2021/04/18 08:19:34;;;;;;;1.30;1.20;;;8.40;98.00;;;;;;5071340;28;20459;-71
2021/04/18 08:22:01;;;;;;;1.60;1.30;;;8.50;98.00;;;;;;5068151;28;20446;-71
2021/04/18 08:24:34;;;;;;;1.20;1.00;;;8.70;98.00;;;;;;5070184;28;20452;-71
2021/04/18 08:27:04;;;;;;;1.27;1.03;;;8.70;98.00;;;;;;5068174;28;20458;-72
2021/04/18 08:29:31;;;;;;;1.47;1.47;;;8.60;98.00;;;;;;5071064;28;20874;-70
2021/04/18 08:32:11;;;;;;;1.40;1.20;;;8.40;98.00;;;;;;5068103;28;20470;-71
2021/04/18 08:34:42;;;;;;;1.33;1.10;;;8.40;98.00;;;;;;5070722;28;20458;-71
2021/04/18 08:37:30;;;;;;;1.40;1.10;;;8.60;98.00;;;;;;5067686;28;20850;-72
2021/04/18 08:40:05;;;;;;;1.20;1.00;;;8.80;98.00;;;;;;5063764;28;20460;-72
2021/04/18 08:42:33;;;;;;;1.30;1.10;;;8.90;98.00;;;;;;5066332;28;20453;-72
2021/04/18 08:45:00;;;;;;;2.27;1.53;;;8.90;98.00;;;;;;5069779;28;20458;-72
2021/04/18 08:47:29;;;;;;;1.20;1.10;;;8.90;98.00;;;;;;5067137;28;20490;-72
2021/04/18 08:50:05;;;;;;;2.33;1.43;;;8.90;98.00;;;;;;5070119;28;20493;-72
2021/04/18 08:52:34;;;;;;;3.20;2.17;;;9.00;98.00;;;;;;5068103;28;20451;-72
2021/04/18 08:55:05;;;;;;;1.20;1.10;;;9.10;98.00;;;;;;5070801;28;20555;-69
2021/04/18 08:57:32;;;;;;;1.20;1.20;;;9.20;98.00;;;;;;5068036;28;20488;-69
2021/04/18 09:00:00;;;;;;;1.40;1.23;;;9.20;97.40;;;;;;5070409;28;20460;-70
2021/04/18 09:02:29;;;;;;;1.20;1.10;;;9.10;96.60;;;;;;5067253;28;20453;-69
2021/04/18 09:04:58;;;;;;;3.93;2.13;;;8.90;96.40;;;;;;5068954;28;20452;-71
2021/04/18 09:07:28;;;;;;;1.40;1.10;;;8.70;97.50;;;;;;5067812;28;20488;-72
2021/04/18 09:09:58;;;;;;;1.40;1.10;;;8.90;98.00;;;;;;5070698;28;20455;-72
2021/04/18 09:12:30;;;;;;;1.30;1.10;;;8.90;98.00;;;;;;5067563;28;20459;-69
2021/04/18 09:14:57;;;;;;;1.30;1.20;;;8.80;98.00;;;;;;5070708;28;20450;-70
2021/04/18 09:17:24;;;;;;;1.63;1.37;;;8.90;97.30;;;;;;5067361;28;20513;-71
2021/04/18 09:19:52;;;;;;;1.20;1.00;;;8.90;97.30;;;;;;5070611;28;20486;-71
2021/04/18 09:22:20;;;;;;;1.20;1.00;;;8.90;97.10;;;;;;5068079;28;20527;-73
2021/04/18 09:24:53;;;;;;;1.50;1.00;;;8.90;97.40;;;;;;5067355;28;20456;-72
2021/04/18 09:27:24;;;;;;;1.20;1.03;;;8.90;97.70;;;;;;5067367;28;20499;-73
2021/04/18 09:29:53;;;;;;;1.20;0.97;;;9.10;97.30;;;;;;5070494;28;20472;-74
2021/04/18 09:32:23;;;;;;;1.40;1.20;;;9.20;97.00;;;;;;5066957;28;20465;-73
2021/04/18 09:34:49;;;;;;;1.47;1.20;;;9.20;96.30;;;;;;5070724;28;20464;-73
2021/04/18 09:37:20;;;;;;;1.20;1.10;;;9.30;96.90;;;;;;5071265;28;20480;-74
2021/04/18 09:39:52;;;;;;;2.03;1.87;;;9.40;95.80;;;;;;5074348;28;20449;-72
2021/04/18 09:42:19;;;;;;;1.20;1.10;;;9.30;95.40;;;;;;5069994;28;20822;-72
2021/04/18 09:44:47;;;;;;;1.20;1.00;;;9.20;95.90;;;;;;5074019;28;20476;-72
2021/04/18 09:47:26;;;;;;;1.20;1.00;;;9.40;96.90;;;;;;5071586;28;20485;-72
2021/04/18 09:49:55;;;;;;;1.43;1.37;;;9.50;97.00;;;;;;5074344;28;20468;-72
2021/04/18 09:52:30;;;;;;;2.07;1.70;;;9.60;96.10;;;;;;5071597;28;20456;-72
2021/04/18 09:55:15;;;;;;;1.70;1.40;;;9.50;95.20;;;;;;5072681;28;20456;-72
2021/04/18 09:57:44;;;;;;;2.00;1.43;;;9.40;95.80;;;;;;5071236;28;20485;-72
2021/04/18 10:00:16;;;;;;;1.20;0.90;;;9.20;95.90;;;;;;5073848;28;20472;-72
2021/04/18 10:03:07;;;;;;;1.50;1.20;;;9.10;97.20;;;;;;5071876;28;20624;-72
2021/04/18 10:05:37;;;;;;;1.20;0.90;;;9.20;95.80;;;;;;5073735;28;20863;-72
2021/04/18 10:08:21;;;;;;;1.20;1.00;;;9.00;95.40;;;;;;5073171;28;20816;-72
2021/04/18 10:10:50;;;;;;;1.20;0.90;;;8.80;97.00;;;;;;5070661;28;20807;-71
2021/04/18 10:13:34;;;;;;;1.90;1.60;;;8.70;97.60;;;;;;5073780;28;20457;-71
2021/04/18 10:16:04;;;;;;;2.80;1.50;;;8.60;97.90;;;;;;5071785;28;20459;-72
2021/04/18 10:18:33;;;;;;;1.20;1.00;;;8.70;97.40;;;;;;5073674;28;21001;-72
2021/04/18 10:21:14;;;;;;;1.40;1.10;;;8.70;98.00;;;;;;5070522;28;20842;-72
2021/04/18 10:23:41;;;;;;;1.20;0.90;;;8.70;97.90;;;;;;5070884;28;20463;-72
2021/04/18 10:26:07;;;;;;;1.30;1.10;;;8.90;98.00;;;;;;5070971;28;20462;-68
2021/04/18 10:28:34;;;;;;;1.53;1.17;;;9.00;96.90;;;;;;5073413;28;20460;-72
2021/04/18 10:31:02;;;;;;;3.43;1.60;;;9.10;96.70;;;;;;5070428;28;20962;-72
2021/04/18 10:33:28;;;;;;;1.20;1.20;;;9.30;97.00;;;;;;5073303;28;20517;-72
2021/04/18 10:35:56;;;;;;;1.40;1.30;;;9.50;96.10;;;;;;5070702;28;20464;-72
2021/04/18 10:38:23;;;;;;;2.47;1.30;;;9.60;95.50;;;;;;5072998;28;20890;-72
2021/04/18 10:40:50;;;;;;;1.70;1.33;;;9.60;95.10;;;;;;5070250;28;20513;-72
2021/04/18 10:43:17;;;;;;;1.60;1.27;;;9.60;94.50;;;;;;5072724;28;20467;-72
2021/04/18 10:45:44;;;;;;;1.30;1.10;;;9.60;94.90;;;;;;5070155;28;20483;-72
2021/04/18 10:48:10;;;;;;;2.07;1.63;;;9.70;94.70;;;;;;5072101;28;20456;-72
2021/04/18 10:50:37;;;;;;;2.13;1.80;;;9.80;95.40;;;;;;5072943;28;20944;-73
2021/04/18 10:53:06;;;;;;;1.77;1.67;;;9.90;94.40;;;;;;5070333;28;20495;-72
2021/04/18 10:55:34;;;;;;;1.80;1.50;;;9.90;94.20;;;;;;5072722;28;20460;-72
2021/04/18 10:58:00;;;;;;;1.33;1.30;;;9.90;95.10;;;;;;5070005;28;20498;-72
2021/04/18 11:00:28;;;;;;;1.57;1.20;;;9.90;94.20;;;;;;5073152;28;20460;-72
2021/04/18 11:02:54;;;;;;;1.20;1.03;;;10.00;96.00;;;;;;5070810;28;20624;-71
2021/04/18 11:05:21;;;;;;;1.77;1.57;;;10.00;93.90;;;;;;5072453;28;20817;-71
2021/04/18 11:07:48;;;;;;;1.20;1.10;;;10.10;93.90;;;;;;5070425;28;20496;-70
2021/04/18 11:10:17;;;;;;;1.73;1.40;;;10.20;94.10;;;;;;5072232;28;20824;-71
2021/04/18 11:12:43;;;;;;;1.20;1.00;;;10.20;93.50;;;;;;5069805;28;20456;-72
2021/04/18 11:15:14;;;;;;;1.50;1.37;;;10.10;94.10;;;;;;5071679;28;20475;-71
2021/04/18 11:17:41;;;;;;;1.60;1.27;;;10.00;93.70;;;;;;5069547;28;20819;-71
2021/04/18 11:20:09;;;;;;;1.40;1.10;;;10.00;95.10;;;;;;5072413;28;20467;-72
2021/04/18 11:22:37;;;;;;;1.60;1.60;;;10.20;94.10;;;;;;5069678;28;20875;-72
2021/04/18 11:25:05;;;;;;;1.20;1.10;;;10.40;94.20;;;;;;5072236;28;20468;-70
2021/04/18 11:27:33;;;;;;;1.20;1.00;;;10.50;93.10;;;;;;5069407;28;20964;-72
2021/04/18 11:30:00;;;;;;;2.07;1.77;;;10.60;92.20;;;;;;5072072;28;20516;-72
2021/04/18 11:32:27;;;;;;;2.37;1.30;;;10.40;92.60;;;;;;5069072;28;20463;-71
2021/04/18 11:34:55;;;;;;;1.20;1.10;;;10.50;93.50;;;;;;5072049;28;20483;-71
2021/04/18 11:37:21;;;;;;;1.53;1.43;;;10.40;92.30;;;;;;5069277;28;20556;-72
2021/04/18 11:39:48;;;;;;;1.37;1.20;;;10.30;93.40;;;;;;5070436;28;20510;-72
2021/04/18 11:42:15;;;;;;;1.20;1.13;;;10.40;93.50;;;;;;5069808;28;20456;-72
2021/04/18 11:44:43;;;;;;;1.57;1.30;;;10.40;93.40;;;;;;5070491;28;20544;-71
2021/04/18 11:47:13;;;;;;;1.43;1.10;;;10.60;93.90;;;;;;5067740;28;21073;-71
2021/04/18 11:49:40;;;;;;;2.00;1.80;;;10.70;94.10;;;;;;5071900;28;20512;-71
2021/04/18 11:52:08;;;;;;;1.20;1.10;;;10.70;93.30;;;;;;5069081;28;20776;-71
2021/04/18 11:54:34;;;;;;;2.50;2.00;;;10.60;91.80;;;;;;5071570;28;20487;-71
2021/04/18 11:57:01;;;;;;;1.20;1.00;;;10.60;92.60;;;;;;5068839;28;20763;-72
2021/04/18 11:59:27;;;;;;;1.77;1.67;;;10.60;92.60;;;;;;5071167;28;20518;-71
2021/04/18 12:01:55;;;;;;;1.83;1.63;;;10.80;92.70;;;;;;5069091;28;20510;-72
2021/04/18 12:04:21;;;;;;;1.87;1.20;;;10.60;92.40;;;;;;5071313;28;20940;-71
2021/04/18 12:06:47;;;;;;;1.40;1.20;;;10.60;93.80;;;;;;5069098;28;20809;-71
2021/04/18 12:09:14;;;;;;;1.60;1.40;;;10.60;93.20;;;;;;5070996;28;20456;-71
2021/04/18 12:11:40;;;;;;;2.83;1.70;;;10.60;92.70;;;;;;5068906;28;20457;-72
2021/04/18 12:14:07;;;;;;;1.60;1.30;;;10.60;92.10;;;;;;5071125;28;20460;-71
2021/04/18 12:16:34;;;;;;;1.73;1.40;;;10.70;91.70;;;;;;5067775;28;20481;-71
2021/04/18 12:19:02;;;;;;;2.40;1.40;;;10.40;91.60;;;;;;5071456;28;20801;-71
2021/04/18 12:21:28;;;;;;;1.80;1.47;;;10.40;92.30;;;;;;5068796;28;20466;-71
2021/04/18 12:23:56;;;;;;;1.20;1.00;;;10.60;92.60;;;;;;5071035;28;20799;-71
2021/04/18 12:26:22;;;;;;;2.40;1.27;;;10.70;92.00;;;;;;5068712;28;20445;-72
2021/04/18 12:28:49;;;;;;;1.80;1.70;;;10.80;91.90;;;;;;5071153;28;20515;-72
2021/04/18 12:31:17;;;;;;;4.93;1.77;;;10.70;91.60;;;;;;5069096;28;20558;-72
2021/04/18 12:33:45;;;;;;;1.40;1.00;;;11.00;92.00;;;;;;5070208;28;20457;-73
2021/04/18 12:36:12;;;;;;;2.80;1.97;;;11.00;90.80;;;;;;5068717;28;20456;-73
2021/04/18 12:38:39;;;;;;;1.50;1.20;;;11.00;90.50;;;;;;5071090;28;20485;-72
2021/04/18 12:41:06;;;;;;;1.20;1.10;;;10.90;91.60;;;;;;5068958;28;20813;-73
2021/04/18 12:43:32;;;;;;;1.27;1.17;;;11.10;91.40;;;;;;5071230;28;20934;-72
2021/04/18 12:45:59;;;;;;;1.20;1.10;;;10.90;90.50;;;;;;5068445;28;20531;-72
2021/04/18 12:48:26;;;;;;;1.30;1.13;;;10.90;91.70;;;;;;5071044;28;20511;-72
2021/04/18 12:50:53;;;;;;;1.70;1.40;;;10.80;91.20;;;;;;5070402;28;20475;-73
2021/04/18 12:53:20;;;;;;;1.67;1.43;;;10.70;91.40;;;;;;5068966;28;20559;-73
2021/04/18 12:55:48;;;;;;;1.73;1.33;;;10.50;92.20;;;;;;5071093;28;20475;-72
2021/04/18 12:58:14;;;;;;;2.10;1.60;;;10.50;93.30;;;;;;5068194;28;21117;-72